sensor_id;sensor_type;location;lat;lon;timestamp;temperature;humidity
49222;DHT22;35047;37.588;-122.048;2023-07-13T00:02:18;36.00;39.50
49222;DHT22;35047;37.588;-122.048;2023-07-13T00:04:44;36.00;39.70
49222;DHT22;35047;37.588;-122.048;2023-07-13T00:07:11;35.80;40.00
49222;DHT22;35047;37.588;-122.048;2023-07-13T00:09:40;35.80;40.00
49222;DHT22;35047;37.588;-122.048;2023-07-13T00:12:29;35.90;39.90
49222;DHT22;35047;37.588;-122.048;2023-07-13T00:14:57;35.90;40.00
49222;DHT22;35047;37.588;-122.048;2023-07-13T00:17:25;35.90;40.00
49222;DHT22;35047;37.588;-122.048;2023-07-13T00:19:51;35.80;40.10
49222;DHT22;35047;37.588;-122.048;2023-07-13T00:22:19;35.60;40.50
49222;DHT22;35047;37.588;-122.048;2023-07-13T00:24:46;35.50;39.90
49222;DHT22;35047;37.588;-122.048;2023-07-13T00:27:12;35.50;40.20
49222;DHT22;35047;37.588;-122.048;2023-07-13T00:29:39;35.50;40.70
49222;DHT22;35047;37.588;-122.048;2023-07-13T00:32:06;35.50;40.30
49222;DHT22;35047;37.588;-122.048;2023-07-13T00:34:33;35.50;39.90
49222;DHT22;35047;37.588;-122.048;2023-07-13T00:37:00;35.50;40.20
49222;DHT22;35047;37.588;-122.048;2023-07-13T00:39:27;35.50;40.30
49222;DHT22;35047;37.588;-122.048;2023-07-13T00:41:54;35.60;40.50
49222;DHT22;35047;37.588;-122.048;2023-07-13T00:44:21;35.40;40.70
49222;DHT22;35047;37.588;-122.048;2023-07-13T00:46:49;35.30;40.90
49222;DHT22;35047;37.588;-122.048;2023-07-13T00:49:19;35.20;41.00
49222;DHT22;35047;37.588;-122.048;2023-07-13T00:54:23;34.70;41.40
49222;DHT22;35047;37.588;-122.048;2023-07-13T00:56:52;34.30;41.20
49222;DHT22;35047;37.588;-122.048;2023-07-13T00:59:20;34.20;41.50
49222;DHT22;35047;37.588;-122.048;2023-07-13T01:01:48;34.10;41.70
49222;DHT22;35047;37.588;-122.048;2023-07-13T01:04:15;34.00;41.70
49222;DHT22;35047;37.588;-122.048;2023-07-13T01:06:42;33.90;41.60
49222;DHT22;35047;37.588;-122.048;2023-07-13T01:09:10;34.00;41.40
49222;DHT22;35047;37.588;-122.048;2023-07-13T01:11:38;33.90;41.90
49222;DHT22;35047;37.588;-122.048;2023-07-13T01:14:04;33.90;42.10
49222;DHT22;35047;37.588;-122.048;2023-07-13T01:16:33;34.00;42.40
49222;DHT22;35047;37.588;-122.048;2023-07-13T01:19:01;34.00;42.40
49222;DHT22;35047;37.588;-122.048;2023-07-13T01:21:32;34.00;41.80
49222;DHT22;35047;37.588;-122.048;2023-07-13T01:23:59;33.90;42.00
49222;DHT22;35047;37.588;-122.048;2023-07-13T01:26:26;33.80;41.70
49222;DHT22;35047;37.588;-122.048;2023-07-13T01:28:53;33.70;41.80
49222;DHT22;35047;37.588;-122.048;2023-07-13T01:31:19;33.60;41.60
49222;DHT22;35047;37.588;-122.048;2023-07-13T01:33:46;33.40;41.80
49222;DHT22;35047;37.588;-122.048;2023-07-13T01:36:12;33.00;42.30
49222;DHT22;35047;37.588;-122.048;2023-07-13T01:38:39;32.80;43.30
49222;DHT22;35047;37.588;-122.048;2023-07-13T01:41:06;32.60;43.00
49222;DHT22;35047;37.588;-122.048;2023-07-13T01:43:33;32.40;43.20
49222;DHT22;35047;37.588;-122.048;2023-07-13T01:45:59;32.20;43.20
49222;DHT22;35047;37.588;-122.048;2023-07-13T01:48:26;31.80;43.40
49222;DHT22;35047;37.588;-122.048;2023-07-13T01:50:52;31.60;43.90
49222;DHT22;35047;37.588;-122.048;2023-07-13T01:58:13;27.70;48.70
49222;DHT22;35047;37.588;-122.048;2023-07-13T02:00:39;25.50;53.90
49222;DHT22;35047;37.588;-122.048;2023-07-13T02:03:07;24.70;57.60
49222;DHT22;35047;37.588;-122.048;2023-07-13T02:05:36;24.00;58.90
49222;DHT22;35047;37.588;-122.048;2023-07-13T02:08:03;22.80;63.30
49222;DHT22;35047;37.588;-122.048;2023-07-13T02:10:30;22.20;64.30
49222;DHT22;35047;37.588;-122.048;2023-07-13T02:12:56;21.40;66.60
49222;DHT22;35047;37.588;-122.048;2023-07-13T02:15:23;22.10;66.60
49222;DHT22;35047;37.588;-122.048;2023-07-13T02:17:49;22.60;64.70
49222;DHT22;35047;37.588;-122.048;2023-07-13T02:20:16;22.90;63.70
49222;DHT22;35047;37.588;-122.048;2023-07-13T02:22:42;23.20;63.00
49222;DHT22;35047;37.588;-122.048;2023-07-13T02:25:12;23.50;61.80
49222;DHT22;35047;37.588;-122.048;2023-07-13T02:27:38;24.00;61.40
49222;DHT22;35047;37.588;-122.048;2023-07-13T02:30:05;24.10;61.50
49222;DHT22;35047;37.588;-122.048;2023-07-13T02:32:32;24.30;61.40
49222;DHT22;35047;37.588;-122.048;2023-07-13T02:35:00;24.20;61.50
49222;DHT22;35047;37.588;-122.048;2023-07-13T02:37:26;24.40;61.30
49222;DHT22;35047;37.588;-122.048;2023-07-13T02:39:53;24.60;60.80
49222;DHT22;35047;37.588;-122.048;2023-07-13T02:42:20;24.80;60.40
49222;DHT22;35047;37.588;-122.048;2023-07-13T02:44:46;24.90;60.00
49222;DHT22;35047;37.588;-122.048;2023-07-13T02:47:13;25.10;59.50
49222;DHT22;35047;37.588;-122.048;2023-07-13T02:49:39;25.20;59.20
49222;DHT22;35047;37.588;-122.048;2023-07-13T02:52:06;25.30;58.40
49222;DHT22;35047;37.588;-122.048;2023-07-13T02:54:33;25.50;57.90
49222;DHT22;35047;37.588;-122.048;2023-07-13T02:57:00;25.50;57.70
49222;DHT22;35047;37.588;-122.048;2023-07-13T02:59:26;25.50;57.60
49222;DHT22;35047;37.588;-122.048;2023-07-13T03:01:53;25.60;57.40
49222;DHT22;35047;37.588;-122.048;2023-07-13T03:04:19;25.60;56.90
49222;DHT22;35047;37.588;-122.048;2023-07-13T03:06:46;25.60;56.50
49222;DHT22;35047;37.588;-122.048;2023-07-13T03:09:12;25.70;56.50
49222;DHT22;35047;37.588;-122.048;2023-07-13T03:11:39;25.70;56.20
49222;DHT22;35047;37.588;-122.048;2023-07-13T03:14:06;25.80;56.10
49222;DHT22;35047;37.588;-122.048;2023-07-13T03:16:32;25.90;56.00
49222;DHT22;35047;37.588;-122.048;2023-07-13T03:18:59;25.80;55.90
49222;DHT22;35047;37.588;-122.048;2023-07-13T03:21:26;25.80;56.10
49222;DHT22;35047;37.588;-122.048;2023-07-13T03:23:52;25.70;56.10
49222;DHT22;35047;37.588;-122.048;2023-07-13T03:26:20;25.60;56.50
49222;DHT22;35047;37.588;-122.048;2023-07-13T03:28:46;25.40;56.70
49222;DHT22;35047;37.588;-122.048;2023-07-13T03:31:16;25.30;57.30
49222;DHT22;35047;37.588;-122.048;2023-07-13T03:33:44;25.30;57.30
49222;DHT22;35047;37.588;-122.048;2023-07-13T03:36:15;25.30;57.20
49222;DHT22;35047;37.588;-122.048;2023-07-13T03:38:46;25.20;57.30
49222;DHT22;35047;37.588;-122.048;2023-07-13T03:41:15;25.10;57.40
49222;DHT22;35047;37.588;-122.048;2023-07-13T03:43:42;25.10;57.40
49222;DHT22;35047;37.588;-122.048;2023-07-13T03:46:09;24.90;57.60
49222;DHT22;35047;37.588;-122.048;2023-07-13T03:48:36;25.00;57.50
49222;DHT22;35047;37.588;-122.048;2023-07-13T03:51:03;24.90;57.40
49222;DHT22;35047;37.588;-122.048;2023-07-13T03:53:29;24.90;57.30
49222;DHT22;35047;37.588;-122.048;2023-07-13T03:55:56;24.90;57.30
49222;DHT22;35047;37.588;-122.048;2023-07-13T04:00:55;25.10;57.20
49222;DHT22;35047;37.588;-122.048;2023-07-13T04:03:22;25.10;57.30
49222;DHT22;35047;37.588;-122.048;2023-07-13T04:05:48;25.10;57.80
49222;DHT22;35047;37.588;-122.048;2023-07-13T04:08:14;25.10;58.00
49222;DHT22;35047;37.588;-122.048;2023-07-13T04:10:42;25.10;58.00
49222;DHT22;35047;37.588;-122.048;2023-07-13T04:13:08;25.10;57.90
49222;DHT22;35047;37.588;-122.048;2023-07-13T04:15:35;25.10;58.00
49222;DHT22;35047;37.588;-122.048;2023-07-13T04:18:01;25.10;58.10
49222;DHT22;35047;37.588;-122.048;2023-07-13T04:20:29;25.10;58.10
49222;DHT22;35047;37.588;-122.048;2023-07-13T04:22:55;25.10;58.30
49222;DHT22;35047;37.588;-122.048;2023-07-13T04:25:23;25.00;58.30
49222;DHT22;35047;37.588;-122.048;2023-07-13T04:27:50;25.00;58.50
49222;DHT22;35047;37.588;-122.048;2023-07-13T04:30:18;25.10;58.40
49222;DHT22;35047;37.588;-122.048;2023-07-13T04:32:44;25.00;58.30
49222;DHT22;35047;37.588;-122.048;2023-07-13T04:35:10;25.00;58.40
49222;DHT22;35047;37.588;-122.048;2023-07-13T04:37:37;25.00;58.50
49222;DHT22;35047;37.588;-122.048;2023-07-13T04:40:04;25.00;58.50
49222;DHT22;35047;37.588;-122.048;2023-07-13T04:42:31;25.00;58.60
49222;DHT22;35047;37.588;-122.048;2023-07-13T04:44:57;25.00;58.60
49222;DHT22;35047;37.588;-122.048;2023-07-13T04:47:23;25.00;58.40
49222;DHT22;35047;37.588;-122.048;2023-07-13T04:49:50;25.00;58.50
49222;DHT22;35047;37.588;-122.048;2023-07-13T04:52:16;25.00;58.50
49222;DHT22;35047;37.588;-122.048;2023-07-13T04:54:43;24.90;58.50
49222;DHT22;35047;37.588;-122.048;2023-07-13T04:57:09;24.90;58.50
49222;DHT22;35047;37.588;-122.048;2023-07-13T04:59:36;24.90;58.70
49222;DHT22;35047;37.588;-122.048;2023-07-13T05:02:03;24.90;58.80
49222;DHT22;35047;37.588;-122.048;2023-07-13T05:04:29;24.90;58.80
49222;DHT22;35047;37.588;-122.048;2023-07-13T05:06:56;24.90;58.90
49222;DHT22;35047;37.588;-122.048;2023-07-13T05:09:22;24.90;58.90
49222;DHT22;35047;37.588;-122.048;2023-07-13T05:11:49;24.90;58.80
49222;DHT22;35047;37.588;-122.048;2023-07-13T05:14:15;24.90;58.90
49222;DHT22;35047;37.588;-122.048;2023-07-13T05:16:42;24.90;58.90
49222;DHT22;35047;37.588;-122.048;2023-07-13T05:19:09;24.90;58.80
49222;DHT22;35047;37.588;-122.048;2023-07-13T05:21:36;24.80;58.70
49222;DHT22;35047;37.588;-122.048;2023-07-13T05:24:03;24.80;58.90
49222;DHT22;35047;37.588;-122.048;2023-07-13T05:26:29;24.80;59.00
49222;DHT22;35047;37.588;-122.048;2023-07-13T05:28:56;24.80;58.90
49222;DHT22;35047;37.588;-122.048;2023-07-13T05:31:22;24.70;58.80
49222;DHT22;35047;37.588;-122.048;2023-07-13T05:33:48;24.80;58.80
49222;DHT22;35047;37.588;-122.048;2023-07-13T05:36:15;24.70;58.60
49222;DHT22;35047;37.588;-122.048;2023-07-13T05:38:42;24.70;58.70
49222;DHT22;35047;37.588;-122.048;2023-07-13T05:41:08;24.70;58.50
49222;DHT22;35047;37.588;-122.048;2023-07-13T05:43:35;24.70;58.90
49222;DHT22;35047;37.588;-122.048;2023-07-13T05:46:01;24.60;58.90
49222;DHT22;35047;37.588;-122.048;2023-07-13T05:48:28;24.60;59.10
49222;DHT22;35047;37.588;-122.048;2023-07-13T05:50:54;24.60;59.00
49222;DHT22;35047;37.588;-122.048;2023-07-13T05:53:21;24.60;58.90
49222;DHT22;35047;37.588;-122.048;2023-07-13T05:55:47;24.50;59.00
49222;DHT22;35047;37.588;-122.048;2023-07-13T05:58:17;24.50;59.10
49222;DHT22;35047;37.588;-122.048;2023-07-13T06:00:44;24.50;59.40
49222;DHT22;35047;37.588;-122.048;2023-07-13T06:03:10;24.50;59.60
49222;DHT22;35047;37.588;-122.048;2023-07-13T06:05:38;24.50;59.50
49222;DHT22;35047;37.588;-122.048;2023-07-13T06:08:06;24.40;59.70
49222;DHT22;35047;37.588;-122.048;2023-07-13T06:10:36;24.40;59.80
49222;DHT22;35047;37.588;-122.048;2023-07-13T06:13:03;24.40;59.80
49222;DHT22;35047;37.588;-122.048;2023-07-13T06:15:29;24.40;59.80
49222;DHT22;35047;37.588;-122.048;2023-07-13T06:17:56;24.30;60.20
49222;DHT22;35047;37.588;-122.048;2023-07-13T06:20:22;24.30;60.10
49222;DHT22;35047;37.588;-122.048;2023-07-13T06:22:49;24.30;60.30
49222;DHT22;35047;37.588;-122.048;2023-07-13T06:25:17;24.30;60.40
49222;DHT22;35047;37.588;-122.048;2023-07-13T06:27:44;24.30;60.40
49222;DHT22;35047;37.588;-122.048;2023-07-13T06:30:11;24.30;60.30
49222;DHT22;35047;37.588;-122.048;2023-07-13T06:32:38;24.30;60.40
49222;DHT22;35047;37.588;-122.048;2023-07-13T06:35:06;24.20;60.50
49222;DHT22;35047;37.588;-122.048;2023-07-13T06:37:32;24.20;60.50
49222;DHT22;35047;37.588;-122.048;2023-07-13T06:39:59;24.20;60.30
49222;DHT22;35047;37.588;-122.048;2023-07-13T06:42:25;24.30;60.30
49222;DHT22;35047;37.588;-122.048;2023-07-13T06:44:52;24.20;60.20
49222;DHT22;35047;37.588;-122.048;2023-07-13T06:47:18;24.20;60.30
49222;DHT22;35047;37.588;-122.048;2023-07-13T06:49:45;24.10;60.10
49222;DHT22;35047;37.588;-122.048;2023-07-13T06:52:11;24.10;60.00
49222;DHT22;35047;37.588;-122.048;2023-07-13T06:54:38;24.10;60.10
49222;DHT22;35047;37.588;-122.048;2023-07-13T06:57:05;24.10;60.10
49222;DHT22;35047;37.588;-122.048;2023-07-13T06:59:31;24.10;60.10
49222;DHT22;35047;37.588;-122.048;2023-07-13T07:01:58;24.00;60.10
49222;DHT22;35047;37.588;-122.048;2023-07-13T07:04:24;24.00;60.20
49222;DHT22;35047;37.588;-122.048;2023-07-13T07:06:51;24.00;60.20
49222;DHT22;35047;37.588;-122.048;2023-07-13T07:09:18;24.00;60.30
49222;DHT22;35047;37.588;-122.048;2023-07-13T07:11:44;24.00;60.40
49222;DHT22;35047;37.588;-122.048;2023-07-13T07:14:11;24.00;60.50
49222;DHT22;35047;37.588;-122.048;2023-07-13T07:16:38;23.90;60.60
49222;DHT22;35047;37.588;-122.048;2023-07-13T07:19:04;23.90;60.60
49222;DHT22;35047;37.588;-122.048;2023-07-13T07:21:30;23.90;60.30
49222;DHT22;35047;37.588;-122.048;2023-07-13T07:23:57;23.90;60.40
49222;DHT22;35047;37.588;-122.048;2023-07-13T07:26:25;23.80;60.80
49222;DHT22;35047;37.588;-122.048;2023-07-13T07:28:52;23.80;60.80
49222;DHT22;35047;37.588;-122.048;2023-07-13T07:31:18;23.80;60.90
49222;DHT22;35047;37.588;-122.048;2023-07-13T07:33:45;23.80;60.90
49222;DHT22;35047;37.588;-122.048;2023-07-13T07:36:12;23.80;61.10
49222;DHT22;35047;37.588;-122.048;2023-07-13T07:38:39;23.80;60.90
49222;DHT22;35047;37.588;-122.048;2023-07-13T07:41:05;23.80;60.90
49222;DHT22;35047;37.588;-122.048;2023-07-13T07:43:32;23.70;61.10
49222;DHT22;35047;37.588;-122.048;2023-07-13T07:45:58;23.70;61.00
49222;DHT22;35047;37.588;-122.048;2023-07-13T07:48:25;23.70;60.90
49222;DHT22;35047;37.588;-122.048;2023-07-13T07:50:51;23.70;61.10
49222;DHT22;35047;37.588;-122.048;2023-07-13T07:53:18;23.70;61.10
49222;DHT22;35047;37.588;-122.048;2023-07-13T07:55:44;23.70;61.10
49222;DHT22;35047;37.588;-122.048;2023-07-13T07:58:12;23.70;60.80
49222;DHT22;35047;37.588;-122.048;2023-07-13T08:00:38;23.70;61.00
49222;DHT22;35047;37.588;-122.048;2023-07-13T08:03:06;23.60;61.00
49222;DHT22;35047;37.588;-122.048;2023-07-13T08:05:35;23.60;61.20
49222;DHT22;35047;37.588;-122.048;2023-07-13T08:08:03;23.60;61.30
49222;DHT22;35047;37.588;-122.048;2023-07-13T08:10:29;23.60;61.20
49222;DHT22;35047;37.588;-122.048;2023-07-13T08:12:56;23.60;61.10
49222;DHT22;35047;37.588;-122.048;2023-07-13T08:15:22;23.60;61.30
49222;DHT22;35047;37.588;-122.048;2023-07-13T08:17:49;23.50;61.20
49222;DHT22;35047;37.588;-122.048;2023-07-13T08:20:16;23.50;61.20
49222;DHT22;35047;37.588;-122.048;2023-07-13T08:22:43;23.50;61.50
49222;DHT22;35047;37.588;-122.048;2023-07-13T08:25:09;23.50;61.30
49222;DHT22;35047;37.588;-122.048;2023-07-13T08:27:36;23.50;61.10
49222;DHT22;35047;37.588;-122.048;2023-07-13T08:30:03;23.60;60.90
49222;DHT22;35047;37.588;-122.048;2023-07-13T08:32:29;23.50;61.20
49222;DHT22;35047;37.588;-122.048;2023-07-13T08:34:56;23.50;61.50
49222;DHT22;35047;37.588;-122.048;2023-07-13T08:37:22;23.50;61.20
49222;DHT22;35047;37.588;-122.048;2023-07-13T08:39:49;23.50;61.10
49222;DHT22;35047;37.588;-122.048;2023-07-13T08:42:32;23.50;61.10
49222;DHT22;35047;37.588;-122.048;2023-07-13T08:45:13;23.40;60.80
49222;DHT22;35047;37.588;-122.048;2023-07-13T08:47:46;23.40;61.00
49222;DHT22;35047;37.588;-122.048;2023-07-13T08:50:17;23.40;61.10
49222;DHT22;35047;37.588;-122.048;2023-07-13T08:52:47;23.40;60.90
49222;DHT22;35047;37.588;-122.048;2023-07-13T08:55:18;23.30;60.80
49222;DHT22;35047;37.588;-122.048;2023-07-13T08:57:50;23.30;61.10
49222;DHT22;35047;37.588;-122.048;2023-07-13T09:00:19;23.30;61.20
49222;DHT22;35047;37.588;-122.048;2023-07-13T09:02:56;23.30;60.90
49222;DHT22;35047;37.588;-122.048;2023-07-13T09:05:28;23.20;60.90
49222;DHT22;35047;37.588;-122.048;2023-07-13T09:10:57;23.10;61.40
49222;DHT22;35047;37.588;-122.048;2023-07-13T09:13:55;23.20;61.30
49222;DHT22;35047;37.588;-122.048;2023-07-13T09:16:24;23.10;61.20
49222;DHT22;35047;37.588;-122.048;2023-07-13T09:18:53;23.10;61.40
49222;DHT22;35047;37.588;-122.048;2023-07-13T09:21:25;23.10;61.60
49222;DHT22;35047;37.588;-122.048;2023-07-13T09:23:54;23.10;61.50
49222;DHT22;35047;37.588;-122.048;2023-07-13T09:26:24;23.10;61.70
49222;DHT22;35047;37.588;-122.048;2023-07-13T09:28:58;23.00;61.60
49222;DHT22;35047;37.588;-122.048;2023-07-13T09:31:39;23.00;61.50
49222;DHT22;35047;37.588;-122.048;2023-07-13T09:34:11;23.00;61.90
49222;DHT22;35047;37.588;-122.048;2023-07-13T09:36:38;23.10;61.80
49222;DHT22;35047;37.588;-122.048;2023-07-13T09:42:01;23.00;61.30
49222;DHT22;35047;37.588;-122.048;2023-07-13T09:44:42;23.00;61.80
49222;DHT22;35047;37.588;-122.048;2023-07-13T09:47:24;23.00;61.80
49222;DHT22;35047;37.588;-122.048;2023-07-13T09:49:57;23.00;61.40
49222;DHT22;35047;37.588;-122.048;2023-07-13T09:52:25;23.00;61.20
49222;DHT22;35047;37.588;-122.048;2023-07-13T09:54:54;23.00;61.30
49222;DHT22;35047;37.588;-122.048;2023-07-13T09:57:26;23.00;61.40
49222;DHT22;35047;37.588;-122.048;2023-07-13T09:59:55;23.00;61.20
49222;DHT22;35047;37.588;-122.048;2023-07-13T10:02:34;22.90;61.00
49222;DHT22;35047;37.588;-122.048;2023-07-13T10:05:03;22.90;61.00
49222;DHT22;35047;37.588;-122.048;2023-07-13T10:07:31;22.90;61.10
49222;DHT22;35047;37.588;-122.048;2023-07-13T10:10:00;22.90;61.20
49222;DHT22;35047;37.588;-122.048;2023-07-13T10:12:28;22.90;61.40
49222;DHT22;35047;37.588;-122.048;2023-07-13T10:14:57;22.80;61.90
49222;DHT22;35047;37.588;-122.048;2023-07-13T10:17:32;22.80;61.20
49222;DHT22;35047;37.588;-122.048;2023-07-13T10:20:04;22.80;61.10
49222;DHT22;35047;37.588;-122.048;2023-07-13T10:25:15;22.80;60.90
49222;DHT22;35047;37.588;-122.048;2023-07-13T10:27:43;22.80;60.90
49222;DHT22;35047;37.588;-122.048;2023-07-13T10:32:37;22.80;60.90
49222;DHT22;35047;37.588;-122.048;2023-07-13T10:35:04;22.70;61.30
49222;DHT22;35047;37.588;-122.048;2023-07-13T10:40:31;22.70;61.80
49222;DHT22;35047;37.588;-122.048;2023-07-13T10:43:04;22.60;61.60
49222;DHT22;35047;37.588;-122.048;2023-07-13T10:45:35;22.60;61.20
49222;DHT22;35047;37.588;-122.048;2023-07-13T10:48:02;22.60;61.00
49222;DHT22;35047;37.588;-122.048;2023-07-13T10:50:29;22.60;61.20
49222;DHT22;35047;37.588;-122.048;2023-07-13T10:53:15;22.60;61.40
49222;DHT22;35047;37.588;-122.048;2023-07-13T10:58:37;22.50;61.30
49222;DHT22;35047;37.588;-122.048;2023-07-13T11:01:10;22.50;61.30
49222;DHT22;35047;37.588;-122.048;2023-07-13T11:06:42;22.50;61.50
49222;DHT22;35047;37.588;-122.048;2023-07-13T11:12:08;22.40;61.40
49222;DHT22;35047;37.588;-122.048;2023-07-13T11:14:44;22.40;61.40
49222;DHT22;35047;37.588;-122.048;2023-07-13T11:30:39;22.30;62.00
49222;DHT22;35047;37.588;-122.048;2023-07-13T11:33:18;22.30;61.80
49222;DHT22;35047;37.588;-122.048;2023-07-13T11:38:21;22.30;61.60
49222;DHT22;35047;37.588;-122.048;2023-07-13T11:40:50;22.30;61.70
49222;DHT22;35047;37.588;-122.048;2023-07-13T11:43:18;22.30;61.90
49222;DHT22;35047;37.588;-122.048;2023-07-13T11:45:44;22.30;61.70
49222;DHT22;35047;37.588;-122.048;2023-07-13T11:48:31;22.30;61.60
49222;DHT22;35047;37.588;-122.048;2023-07-13T11:51:01;22.30;61.60
49222;DHT22;35047;37.588;-122.048;2023-07-13T11:53:45;22.20;61.70
49222;DHT22;35047;37.588;-122.048;2023-07-13T11:56:12;22.20;61.60
49222;DHT22;35047;37.588;-122.048;2023-07-13T11:58:39;22.20;61.60
49222;DHT22;35047;37.588;-122.048;2023-07-13T12:01:20;22.20;61.70
49222;DHT22;35047;37.588;-122.048;2023-07-13T12:03:49;22.20;61.60
49222;DHT22;35047;37.588;-122.048;2023-07-13T12:06:42;22.20;61.50
49222;DHT22;35047;37.588;-122.048;2023-07-13T12:09:12;22.10;61.70
49222;DHT22;35047;37.588;-122.048;2023-07-13T12:11:43;22.20;61.80
49222;DHT22;35047;37.588;-122.048;2023-07-13T12:14:17;22.20;62.00
49222;DHT22;35047;37.588;-122.048;2023-07-13T12:16:47;22.20;63.60
49222;DHT22;35047;37.588;-122.048;2023-07-13T12:19:21;22.10;64.80
49222;DHT22;35047;37.588;-122.048;2023-07-13T12:21:49;22.10;65.70
49222;DHT22;35047;37.588;-122.048;2023-07-13T12:24:21;22.20;66.20
49222;DHT22;35047;37.588;-122.048;2023-07-13T12:26:54;22.20;65.20
49222;DHT22;35047;37.588;-122.048;2023-07-13T12:29:21;22.20;65.50
49222;DHT22;35047;37.588;-122.048;2023-07-13T12:31:49;22.10;64.90
49222;DHT22;35047;37.588;-122.048;2023-07-13T12:34:22;22.10;64.60
49222;DHT22;35047;37.588;-122.048;2023-07-13T12:36:56;22.10;65.30
49222;DHT22;35047;37.588;-122.048;2023-07-13T12:41:53;22.10;65.10
49222;DHT22;35047;37.588;-122.048;2023-07-13T12:44:29;22.20;66.20
49222;DHT22;35047;37.588;-122.048;2023-07-13T12:46:59;22.20;64.70
49222;DHT22;35047;37.588;-122.048;2023-07-13T12:49:32;22.10;64.30
49222;DHT22;35047;37.588;-122.048;2023-07-13T12:52:03;22.10;64.50
49222;DHT22;35047;37.588;-122.048;2023-07-13T12:54:31;22.10;64.30
49222;DHT22;35047;37.588;-122.048;2023-07-13T12:56:59;22.10;64.50
49222;DHT22;35047;37.588;-122.048;2023-07-13T12:59:31;22.10;64.30
49222;DHT22;35047;37.588;-122.048;2023-07-13T13:01:59;22.10;64.30
49222;DHT22;35047;37.588;-122.048;2023-07-13T13:04:26;22.00;64.00
49222;DHT22;35047;37.588;-122.048;2023-07-13T13:07:11;22.00;64.40
49222;DHT22;35047;37.588;-122.048;2023-07-13T13:09:38;22.00;64.50
49222;DHT22;35047;37.588;-122.048;2023-07-13T13:12:04;22.10;64.60
49222;DHT22;35047;37.588;-122.048;2023-07-13T13:14:32;22.10;64.40
49222;DHT22;35047;37.588;-122.048;2023-07-13T13:16:59;22.10;65.30
49222;DHT22;35047;37.588;-122.048;2023-07-13T13:19:28;22.10;64.40
49222;DHT22;35047;37.588;-122.048;2023-07-13T13:21:56;22.10;64.50
49222;DHT22;35047;37.588;-122.048;2023-07-13T13:24:26;22.10;64.30
49222;DHT22;35047;37.588;-122.048;2023-07-13T13:26:53;22.10;64.50
49222;DHT22;35047;37.588;-122.048;2023-07-13T13:29:24;22.10;64.60
49222;DHT22;35047;37.588;-122.048;2023-07-13T13:31:51;22.10;64.60
49222;DHT22;35047;37.588;-122.048;2023-07-13T13:34:19;22.20;64.50
49222;DHT22;35047;37.588;-122.048;2023-07-13T13:36:47;22.20;64.60
49222;DHT22;35047;37.588;-122.048;2023-07-13T13:39:22;22.20;64.60
49222;DHT22;35047;37.588;-122.048;2023-07-13T13:41:51;22.20;64.60
49222;DHT22;35047;37.588;-122.048;2023-07-13T13:44:21;22.10;64.60
49222;DHT22;35047;37.588;-122.048;2023-07-13T13:46:48;22.20;64.90
49222;DHT22;35047;37.588;-122.048;2023-07-13T13:49:19;22.20;65.10
49222;DHT22;35047;37.588;-122.048;2023-07-13T13:51:47;22.20;65.40
49222;DHT22;35047;37.588;-122.048;2023-07-13T13:54:15;22.20;65.80
49222;DHT22;35047;37.588;-122.048;2023-07-13T13:56:46;22.20;66.30
49222;DHT22;35047;37.588;-122.048;2023-07-13T13:59:14;22.30;66.80
49222;DHT22;35047;37.588;-122.048;2023-07-13T14:01:44;22.30;67.00
49222;DHT22;35047;37.588;-122.048;2023-07-13T14:04:21;22.40;67.30
49222;DHT22;35047;37.588;-122.048;2023-07-13T14:06:48;22.40;67.50
49222;DHT22;35047;37.588;-122.048;2023-07-13T14:09:17;22.40;67.70
49222;DHT22;35047;37.588;-122.048;2023-07-13T14:11:45;22.40;67.90
49222;DHT22;35047;37.588;-122.048;2023-07-13T14:14:22;22.50;67.60
49222;DHT22;35047;37.588;-122.048;2023-07-13T14:16:51;22.60;67.50
49222;DHT22;35047;37.588;-122.048;2023-07-13T14:19:19;22.70;67.40
49222;DHT22;35047;37.588;-122.048;2023-07-13T14:21:46;22.80;67.40
49222;DHT22;35047;37.588;-122.048;2023-07-13T14:24:15;23.10;66.90
49222;DHT22;35047;37.588;-122.048;2023-07-13T14:26:42;23.60;65.40
49222;DHT22;35047;37.588;-122.048;2023-07-13T14:29:19;24.40;62.80
49222;DHT22;35047;37.588;-122.048;2023-07-13T14:31:45;24.90;61.60
49222;DHT22;35047;37.588;-122.048;2023-07-13T14:34:13;24.70;62.10
49222;DHT22;35047;37.588;-122.048;2023-07-13T14:36:42;24.60;62.60
49222;DHT22;35047;37.588;-122.048;2023-07-13T14:39:16;24.40;62.70
49222;DHT22;35047;37.588;-122.048;2023-07-13T14:41:44;24.30;63.00
49222;DHT22;35047;37.588;-122.048;2023-07-13T14:44:13;24.30;63.20
49222;DHT22;35047;37.588;-122.048;2023-07-13T14:46:41;24.20;63.40
49222;DHT22;35047;37.588;-122.048;2023-07-13T14:49:32;24.10;63.50
49222;DHT22;35047;37.588;-122.048;2023-07-13T14:52:03;24.10;64.00
49222;DHT22;35047;37.588;-122.048;2023-07-13T14:54:31;24.20;64.00
49222;DHT22;35047;37.588;-122.048;2023-07-13T14:56:58;24.20;63.50
49222;DHT22;35047;37.588;-122.048;2023-07-13T14:59:24;24.10;64.10
49222;DHT22;35047;37.588;-122.048;2023-07-13T15:01:51;24.10;64.00
49222;DHT22;35047;37.588;-122.048;2023-07-13T15:04:18;24.20;64.30
49222;DHT22;35047;37.588;-122.048;2023-07-13T15:06:56;24.30;63.50
49222;DHT22;35047;37.588;-122.048;2023-07-13T15:09:23;24.30;63.30
49222;DHT22;35047;37.588;-122.048;2023-07-13T15:11:55;24.20;63.70
49222;DHT22;35047;37.588;-122.048;2023-07-13T15:14:22;24.30;63.50
49222;DHT22;35047;37.588;-122.048;2023-07-13T15:16:53;24.30;63.50
49222;DHT22;35047;37.588;-122.048;2023-07-13T15:19:21;24.30;63.60
49222;DHT22;35047;37.588;-122.048;2023-07-13T15:21:49;24.50;63.40
49222;DHT22;35047;37.588;-122.048;2023-07-13T15:24:18;24.60;62.90
49222;DHT22;35047;37.588;-122.048;2023-07-13T15:26:44;24.60;62.80
49222;DHT22;35047;37.588;-122.048;2023-07-13T15:29:12;24.50;62.80
49222;DHT22;35047;37.588;-122.048;2023-07-13T15:31:41;24.40;63.10
49222;DHT22;35047;37.588;-122.048;2023-07-13T15:34:15;24.40;63.20
49222;DHT22;35047;37.588;-122.048;2023-07-13T15:36:42;24.40;63.70
49222;DHT22;35047;37.588;-122.048;2023-07-13T15:39:14;24.30;64.50
49222;DHT22;35047;37.588;-122.048;2023-07-13T15:41:43;24.30;63.90
49222;DHT22;35047;37.588;-122.048;2023-07-13T15:44:43;24.20;64.50
49222;DHT22;35047;37.588;-122.048;2023-07-13T15:47:12;23.90;64.70
49222;DHT22;35047;37.588;-122.048;2023-07-13T15:49:40;23.70;65.00